createdAt,value
2018-05-25T00:00:02.125Z,100002
2018-05-25T00:02:30.244Z,100003
2018-05-25T00:04:58.290Z,100006
2018-05-25T00:07:26.330Z,100007
2018-05-25T00:09:54.380Z,100004
2018-05-25T00:12:23.295Z,100003
2018-05-25T00:14:51.343Z,99996
2018-05-25T00:17:19.384Z,100001
2018-05-25T00:19:47.429Z,100005
2018-05-25T00:22:16.351Z,100005
2018-05-25T00:24:44.445Z,100008
2018-05-25T00:27:12.522Z,99996
2018-05-25T00:29:40.566Z,100002
2018-05-25T00:32:08.696Z,100000
2018-05-25T00:34:36.730Z,100003
2018-05-25T00:37:04.857Z,99997
2018-05-25T00:39:32.906Z,99999
2018-05-25T00:42:00.955Z,99999
2018-05-25T00:44:29.023Z,100003
2018-05-25T00:46:57.084Z,100004
2018-05-25T00:49:25.891Z,99998
2018-05-25T00:51:54.712Z,100004
2018-05-25T00:54:22.800Z,100000
2018-05-25T00:56:50.896Z,99999
2018-05-25T00:59:18.968Z,99999
2018-05-25T01:01:47.056Z,100000
2018-05-25T01:04:15.142Z,99996
2018-05-25T01:06:43.192Z,99996
2018-05-25T01:09:12.035Z,99993
2018-05-25T01:11:40.074Z,99988
2018-05-25T01:14:08.903Z,99990
2018-05-25T01:16:36.958Z,99994
2018-05-25T01:19:05.079Z,99998
2018-05-25T01:21:33.131Z,99998
2018-05-25T01:24:01.259Z,100002
2018-05-25T01:26:29.340Z,100006
2018-05-25T01:28:57.423Z,100005
2018-05-25T01:31:25.475Z,100005
2018-05-25T01:33:53.591Z,100005
2018-05-25T01:36:21.644Z,100004
2018-05-25T01:38:49.763Z,100004
2018-05-25T01:41:17.851Z,100003
2018-05-25T01:43:45.894Z,100002
2018-05-25T01:46:14.024Z,99993
2018-05-25T01:48:42.063Z,99994
2018-05-25T01:51:10.878Z,99991
2018-05-25T01:53:39.688Z,99991
2018-05-25T01:56:08.820Z,99990
2018-05-25T01:58:36.866Z,99991
2018-05-25T02:01:04.905Z,99991
2018-05-25T02:03:32.967Z,99983
2018-05-25T02:06:01.064Z,99984
2018-05-25T02:08:29.147Z,99986
2018-05-25T02:10:57.195Z,99984
2018-05-25T02:13:26.027Z,99987
2018-05-25T02:15:54.110Z,99986
2018-05-25T02:18:22.179Z,99984
2018-05-25T02:20:50.987Z,99978
2018-05-25T02:23:19.909Z,99979
2018-05-25T02:25:47.994Z,99979
2018-05-25T02:28:16.051Z,99973
2018-05-25T02:30:44.859Z,99971
2018-05-25T02:33:13.786Z,99972
2018-05-25T02:35:41.868Z,99969
2018-05-25T02:38:09.955Z,99966
2018-05-25T02:40:37.994Z,99965
2018-05-25T02:43:06.064Z,99971
2018-05-25T02:45:34.111Z,99963
2018-05-25T02:48:02.171Z,99969
2018-05-25T02:50:30.999Z,99967
2018-05-25T02:52:59.051Z,99967
2018-05-25T02:55:27.863Z,99969
2018-05-25T02:57:56.778Z,99975
2018-05-25T03:00:24.822Z,99973
2018-05-25T03:02:52.888Z,99979
2018-05-25T03:05:20.932Z,99979
2018-05-25T03:07:49.003Z,99982
2018-05-25T03:10:17.923Z,99985
2018-05-25T03:12:45.981Z,99983
2018-05-25T03:15:14.816Z,99983
2018-05-25T03:17:42.867Z,99986
2018-05-25T03:20:11.708Z,99987
2018-05-25T03:22:39.755Z,99992
2018-05-25T03:25:08.693Z,99989
2018-05-25T03:27:36.730Z,99996
2018-05-25T03:30:04.858Z,99999
2018-05-25T03:32:32.903Z,99999
2018-05-25T03:35:00.942Z,99997
2018-05-25T03:37:28.996Z,100007
2018-05-25T03:39:57.830Z,100010
2018-05-25T03:42:25.878Z,100011
2018-05-25T03:44:54.707Z,100026
2018-05-25T03:47:22.759Z,100022
2018-05-25T03:49:51.583Z,100020
2018-05-25T03:52:19.635Z,100024
2018-05-25T03:54:47.742Z,100022
2018-05-25T03:57:16.667Z,100022
2018-05-25T04:00:02.675Z,100022
2018-05-25T04:02:30.757Z,100031
2018-05-25T04:04:59.664Z,100035
2018-05-25T04:07:27.743Z,100027
2018-05-25T04:09:55.823Z,100027
2018-05-25T04:12:23.920Z,100030
2018-05-25T04:14:51.979Z,100030
2018-05-25T04:17:20.827Z,100026
2018-05-25T04:19:48.998Z,100027
2018-05-25T04:22:17.059Z,100030
2018-05-25T04:24:45.884Z,100031
2018-05-25T04:27:13.967Z,100033
2018-05-25T04:29:42.055Z,100026
2018-05-25T04:32:10.099Z,100028
2018-05-25T04:34:38.932Z,100037
2018-05-25T04:37:07.024Z,100032
2018-05-25T04:39:35.108Z,100043
2018-05-25T04:42:03.134Z,100039
2018-05-25T04:44:31.196Z,100038
2018-05-25T04:46:59.351Z,100036
2018-05-25T04:49:27.438Z,100028
2018-05-25T04:51:55.527Z,100025
2018-05-25T04:54:23.611Z,100025
2018-05-25T04:56:51.702Z,100026
2018-05-25T04:59:19.842Z,100021
2018-05-25T05:01:47.872Z,100026
2018-05-25T05:04:15.931Z,100022
2018-05-25T05:06:44.747Z,100029
2018-05-25T05:09:12.798Z,100031
2018-05-25T05:11:40.838Z,100037
2018-05-25T05:14:08.908Z,100036
2018-05-25T05:16:36.999Z,100039
2018-05-25T05:19:05.080Z,100034
2018-05-25T05:21:33.137Z,100035
2018-05-25T05:24:01.959Z,100043
2018-05-25T05:26:30.016Z,100047
2018-05-25T05:28:58.831Z,100039
2018-05-25T05:31:27.751Z,100033
2018-05-25T05:33:55.795Z,100033
2018-05-25T05:36:23.927Z,100029
2018-05-25T05:38:52.012Z,100033
2018-05-25T05:41:20.074Z,100050
2018-05-25T05:43:49.003Z,100049
2018-05-25T05:46:17.067Z,100059
2018-05-25T05:48:45.887Z,100056
2018-05-25T05:51:13.951Z,100059
2018-05-25T05:53:42.771Z,100055
2018-05-25T05:56:10.959Z,100056
2018-05-25T05:58:39.046Z,100051
2018-05-25T06:01:07.103Z,100057
2018-05-25T06:03:35.934Z,100055
2018-05-25T06:06:03.994Z,100059
2018-05-25T06:08:32.815Z,100059
2018-05-25T06:11:01.007Z,100061
2018-05-25T06:13:29.104Z,100065
2018-05-25T06:15:57.158Z,100063
2018-05-25T06:18:26.062Z,100066
2018-05-25T06:20:54.891Z,100062
2018-05-25T06:23:22.967Z,100063
2018-05-25T06:25:51.054Z,100062
2018-05-25T06:28:19.142Z,100064
2018-05-25T06:30:47.206Z,100063
2018-05-25T06:33:15.260Z,100062
2018-05-25T06:35:43.323Z,100064
2018-05-25T06:38:11.483Z,100073
2018-05-25T06:40:39.548Z,100071
2018-05-25T06:43:07.651Z,100069
2018-05-25T06:45:35.721Z,100070
2018-05-25T06:48:04.542Z,100075
2018-05-25T06:50:32.603Z,100072
2018-05-25T06:53:01.530Z,100068
2018-05-25T06:55:29.590Z,100065
2018-05-25T06:57:58.438Z,100065
2018-05-25T07:00:26.459Z,100060
2018-05-25T07:02:54.514Z,100055
2018-05-25T07:05:22.673Z,100048
2018-05-25T07:07:50.751Z,100048
2018-05-25T07:10:18.807Z,100048
2018-05-25T07:12:47.743Z,100045
2018-05-25T07:15:15.804Z,100038
2018-05-25T07:17:44.744Z,100042
2018-05-25T07:20:12.827Z,100045
2018-05-25T07:22:40.887Z,100049
2018-05-25T07:25:08.935Z,100051
2018-05-25T07:27:36.999Z,100046
2018-05-25T07:30:05.131Z,100049
2018-05-25T07:32:34.063Z,100052
2018-05-25T07:35:02.159Z,100054
2018-05-25T07:37:30.219Z,100054
2018-05-25T07:39:58.319Z,100047
2018-05-25T07:42:26.410Z,100055
2018-05-25T07:44:54.495Z,100057
2018-05-25T07:47:22.555Z,100058
2018-05-25T07:49:51.487Z,100061
2018-05-25T07:52:19.534Z,100055
2018-05-25T07:54:48.368Z,100054
2018-05-25T07:57:16.452Z,100064
2018-05-25T07:59:44.508Z,100061
2018-05-25T08:02:13.335Z,100058
2018-05-25T08:04:41.428Z,100058
2018-05-25T08:07:09.519Z,100059
2018-05-25T08:09:37.571Z,100055
2018-05-25T08:12:06.392Z,100052
2018-05-25T08:14:34.443Z,100046
2018-05-25T08:17:03.383Z,100055
2018-05-25T08:19:31.439Z,100053
2018-05-25T08:22:00.406Z,100055
2018-05-25T08:24:28.459Z,100064
2018-05-25T08:26:56.539Z,100057
2018-05-25T08:29:24.625Z,100064
2018-05-25T08:31:52.687Z,100065
2018-05-25T08:34:21.617Z,100068
2018-05-25T08:36:49.695Z,100064
2018-05-25T08:39:17.784Z,100065
2018-05-25T08:41:45.875Z,100061
2018-05-25T08:44:14.695Z,100065
2018-05-25T08:46:42.756Z,100062
2018-05-25T08:49:10.831Z,100057
2018-05-25T08:51:38.927Z,100063
2018-05-25T08:54:07.011Z,100065
2018-05-25T08:56:35.106Z,100065
2018-05-25T08:59:03.261Z,100068
2018-05-25T09:01:32.092Z,100065
2018-05-25T09:04:00.167Z,100072
2018-05-25T09:06:28.215Z,100072
2018-05-25T09:08:56.354Z,100075
2018-05-25T09:11:24.423Z,100067
2018-05-25T09:13:52.487Z,100066
2018-05-25T09:16:21.407Z,100064
2018-05-25T09:18:49.500Z,100068
2018-05-25T09:21:17.550Z,100067
2018-05-25T09:23:45.619Z,100071
2018-05-25T09:26:13.755Z,100068
2018-05-25T09:28:41.819Z,100066
2018-05-25T09:31:10.643Z,100066
2018-05-25T09:33:38.703Z,100062
2018-05-25T09:36:07.636Z,100062
2018-05-25T09:38:35.695Z,100062
2018-05-25T09:41:04.516Z,100066
2018-05-25T09:43:32.571Z,100065
2018-05-25T09:46:01.397Z,100067
2018-05-25T09:48:30.219Z,100070
2018-05-25T09:50:58.275Z,100065
2018-05-25T09:53:27.099Z,100072
2018-05-25T09:55:55.179Z,100069
2018-05-25T09:58:23.299Z,100065
2018-05-25T10:00:51.335Z,100055
2018-05-25T10:03:20.166Z,100050
2018-05-25T10:05:48.221Z,100052
2018-05-25T10:08:17.047Z,100055
2018-05-25T10:10:45.132Z,100052
2018-05-25T10:13:13.215Z,100049
2018-05-25T10:15:41.271Z,100049
2018-05-25T10:18:10.098Z,100042
2018-05-25T10:20:38.148Z,100036
2018-05-25T10:23:06.971Z,100039
2018-05-25T10:25:35.031Z,100042
2018-05-25T10:28:03.165Z,100041
2018-05-25T10:30:31.242Z,100035
2018-05-25T10:32:59.295Z,100036
2018-05-25T10:35:28.194Z,100039
2018-05-25T10:37:57.023Z,100046
2018-05-25T10:40:25.091Z,100043
2018-05-25T10:42:53.926Z,100035
2018-05-25T10:45:22.004Z,100034
2018-05-25T10:47:50.058Z,100031
2018-05-25T10:50:19.002Z,100024
2018-05-25T10:52:47.066Z,100028
2018-05-25T10:55:15.891Z,100027
2018-05-25T10:57:43.955Z,100030
2018-05-25T11:00:12.016Z,100024
2018-05-25T11:02:40.074Z,100025
2018-05-25T11:05:08.222Z,100022
2018-05-25T11:07:36.284Z,100023
2018-05-25T11:10:05.250Z,100027
2018-05-25T11:12:33.266Z,100028
2018-05-25T11:15:02.092Z,100031
2018-05-25T11:17:30.150Z,100031
2018-05-25T11:19:58.979Z,100024
2018-05-25T11:22:27.074Z,100017
2018-05-25T11:24:55.150Z,100022
2018-05-25T11:27:23.201Z,100019
2018-05-25T11:29:51.251Z,100025
2018-05-25T11:32:19.311Z,100021
2018-05-25T11:34:47.379Z,100018
2018-05-25T11:37:16.196Z,100011
2018-05-25T11:39:44.256Z,100014
2018-05-25T11:42:13.070Z,100016
2018-05-25T11:44:41.267Z,100022
2018-05-25T11:47:09.315Z,100019
2018-05-25T11:49:37.388Z,100017
2018-05-25T11:52:05.450Z,100016
2018-05-25T11:54:33.607Z,100013
2018-05-25T11:57:01.659Z,100017
2018-05-25T11:59:29.702Z,100010
2018-05-25T12:01:57.760Z,100004
2018-05-25T12:04:25.847Z,100004
2018-05-25T12:06:53.890Z,99996
2018-05-25T12:09:22.128Z,99995
2018-05-25T12:11:50.211Z,99993
2018-05-25T12:14:18.258Z,99995
2018-05-25T12:16:47.099Z,99986
2018-05-25T12:19:15.139Z,99985
2018-05-25T12:21:43.195Z,99985
2018-05-25T12:24:11.262Z,99989
2018-05-25T12:26:39.294Z,99986
2018-05-25T12:29:08.108Z,99983
2018-05-25T12:31:36.919Z,99973
2018-05-25T12:34:05.022Z,99984
2018-05-25T12:36:33.063Z,99978
2018-05-25T12:39:01.192Z,99977
2018-05-25T12:41:29.244Z,99976
2018-05-25T12:43:58.082Z,99971
2018-05-25T12:46:26.160Z,99976
2018-05-25T12:48:54.248Z,99981
2018-05-25T12:51:22.308Z,99976
2018-05-25T12:53:51.112Z,99982
2018-05-25T12:56:20.032Z,99980
2018-05-25T12:58:48.127Z,99969
2018-05-25T13:01:16.184Z,99978
2018-05-25T13:03:44.990Z,99967
2018-05-25T13:06:13.910Z,99978
2018-05-25T13:08:41.971Z,99974
2018-05-25T13:11:10.800Z,99967
2018-05-25T13:13:38.888Z,99962
2018-05-25T13:16:06.972Z,99965
2018-05-25T13:18:35.063Z,99964
2018-05-25T13:21:03.144Z,99963
2018-05-25T13:23:31.239Z,99959
2018-05-25T13:25:59.286Z,99962
2018-05-25T13:28:28.111Z,99952
2018-05-25T13:30:56.163Z,99965
2018-05-25T13:33:24.977Z,99968
2018-05-25T13:35:53.804Z,99970
2018-05-25T13:38:21.891Z,99972
2018-05-25T13:40:50.020Z,99968
2018-05-25T13:43:18.063Z,99968
2018-05-25T13:45:46.144Z,99968
2018-05-25T13:48:14.207Z,99968
2018-05-25T13:50:43.041Z,99966
2018-05-25T13:53:11.091Z,99964
2018-05-25T13:55:39.904Z,99959
2018-05-25T13:58:08.820Z,99959
2018-05-25T14:00:36.915Z,99954
2018-05-25T14:03:04.967Z,99947
2018-05-25T14:05:33.800Z,99944
2018-05-25T14:08:01.845Z,99945
2018-05-25T14:10:29.969Z,99944
2018-05-25T14:12:58.051Z,99943
2018-05-25T14:15:26.130Z,99937
2018-05-25T14:17:54.224Z,99934
2018-05-25T14:20:23.016Z,99939
2018-05-25T14:22:51.068Z,99943
2018-05-25T14:25:19.115Z,99937
2018-05-25T14:27:47.171Z,99941
2018-05-25T14:30:15.266Z,99935
2018-05-25T14:32:43.325Z,99939
2018-05-25T14:35:12.127Z,99938
2018-05-25T14:37:41.049Z,99942
2018-05-25T14:40:09.136Z,99935
2018-05-25T14:42:37.195Z,99938
2018-05-25T14:45:06.026Z,99936
2018-05-25T14:47:34.071Z,99937
2018-05-25T14:50:02.114Z,99927
2018-05-25T14:52:30.188Z,99927
2018-05-25T14:54:58.370Z,99925
2018-05-25T14:57:26.430Z,99923
2018-05-25T14:59:55.259Z,99922
2018-05-25T15:02:23.303Z,99927
2018-05-25T15:04:52.252Z,99930
2018-05-25T15:07:20.308Z,99936
2018-05-25T15:09:49.108Z,99936
2018-05-25T15:12:17.923Z,99927
2018-05-25T15:14:46.021Z,99929
2018-05-25T15:17:14.067Z,99931
2018-05-25T15:19:42.908Z,99934
2018-05-25T15:22:10.960Z,99935
2018-05-25T15:24:39.795Z,99932
2018-05-25T15:27:07.839Z,99928
2018-05-25T15:29:36.016Z,99927
2018-05-25T15:32:04.086Z,99919
2018-05-25T15:34:32.868Z,99924
2018-05-25T15:37:00.943Z,99922
2018-05-25T15:39:28.976Z,99922
2018-05-25T15:41:57.023Z,99915
2018-05-25T15:44:25.843Z,99913
2018-05-25T15:46:53.992Z,99911
2018-05-25T15:49:22.043Z,99909
2018-05-25T15:51:50.164Z,99913
2018-05-25T15:54:18.215Z,99906
2018-05-25T15:56:47.055Z,99905
2018-05-25T15:59:15.123Z,99909
2018-05-25T16:01:43.219Z,99905
2018-05-25T16:04:11.307Z,99912
2018-05-25T16:06:39.347Z,99913
2018-05-25T16:09:07.477Z,99908
2018-05-25T16:11:35.523Z,99906
2018-05-25T16:14:03.647Z,99906
2018-05-25T16:16:31.707Z,99908
2018-05-25T16:19:00.540Z,99909
2018-05-25T16:21:28.614Z,99911
2018-05-25T16:23:56.685Z,99906
2018-05-25T16:26:25.483Z,99905
2018-05-25T16:28:54.322Z,99898
2018-05-25T16:31:22.343Z,99898
2018-05-25T16:33:50.395Z,99901
2018-05-25T16:36:18.441Z,99895
2018-05-25T16:38:47.252Z,99888
2018-05-25T16:41:15.295Z,99888
2018-05-25T16:43:43.352Z,99885
2018-05-25T16:46:11.573Z,99892
2018-05-25T16:48:39.606Z,99888
2018-05-25T16:51:07.647Z,99882
2018-05-25T16:53:35.767Z,99885
2018-05-25T16:56:03.845Z,99889
2018-05-25T16:58:31.863Z,99888
2018-05-25T17:00:59.928Z,99889
2018-05-25T17:03:28.007Z,99883
2018-05-25T17:05:56.067Z,99891
2018-05-25T17:08:24.891Z,99891
2018-05-25T17:10:52.978Z,99888
2018-05-25T17:13:21.068Z,99882
2018-05-25T17:15:49.156Z,99887
2018-05-25T17:18:17.246Z,99885
2018-05-25T17:20:45.295Z,99892
2018-05-25T17:23:13.422Z,99890
2018-05-25T17:25:41.600Z,99896
2018-05-25T17:28:09.675Z,99898
2018-05-25T17:30:37.763Z,99908
2018-05-25T17:33:05.852Z,99911
2018-05-25T17:35:33.943Z,99913
2018-05-25T17:38:01.999Z,99912
2018-05-25T17:40:30.815Z,99911
2018-05-25T17:42:58.858Z,99916
2018-05-25T17:45:26.995Z,99916
2018-05-25T17:47:55.038Z,99921
2018-05-25T17:50:23.119Z,99925
2018-05-25T17:52:51.167Z,99927
2018-05-25T17:55:19.239Z,99920
2018-05-25T17:57:47.278Z,99923
2018-05-25T18:00:15.332Z,99930
2018-05-25T18:02:43.376Z,99937
2018-05-25T18:05:11.443Z,99939
2018-05-25T18:07:39.478Z,99944
2018-05-25T18:10:07.644Z,99951
2018-05-25T18:12:35.739Z,99947
2018-05-25T18:15:03.792Z,99951
2018-05-25T18:17:32.616Z,99950
2018-05-25T18:20:00.715Z,99952
2018-05-25T18:22:28.792Z,99955
2018-05-25T18:24:56.853Z,99960
2018-05-25T18:27:25.664Z,99962
2018-05-25T18:29:54.475Z,99967
2018-05-25T18:32:22.515Z,99968
2018-05-25T18:34:50.562Z,99973
2018-05-25T18:37:18.607Z,99977
2018-05-25T18:39:47.535Z,99979
2018-05-25T18:42:15.619Z,99984
2018-05-25T18:44:43.679Z,99976
2018-05-25T18:47:12.487Z,99984
2018-05-25T18:49:41.299Z,99982
2018-05-25T18:52:09.344Z,99979
2018-05-25T18:54:37.478Z,99983
2018-05-25T18:57:05.567Z,99977
2018-05-25T18:59:33.636Z,99983
2018-05-25T19:02:02.453Z,99989
2018-05-25T19:04:30.557Z,99989
2018-05-25T19:06:58.615Z,99994
2018-05-25T19:09:26.672Z,99995
2018-05-25T19:11:54.791Z,100000
2018-05-25T19:14:22.975Z,99998
2018-05-25T19:16:51.018Z,100002
2018-05-25T19:19:19.147Z,100009
2018-05-25T19:21:47.195Z,100007
2018-05-25T19:24:16.022Z,100010
2018-05-25T19:26:44.856Z,100019
2018-05-25T19:29:13.640Z,100021
2018-05-25T19:31:41.745Z,100027
2018-05-25T19:34:09.822Z,100026
2018-05-25T19:36:37.867Z,100027
2018-05-25T19:39:06.679Z,100029
2018-05-25T19:41:35.598Z,100026
2018-05-25T19:44:03.686Z,100031
2018-05-25T19:46:32.488Z,100029
2018-05-25T19:49:00.581Z,100034
2018-05-25T19:51:28.659Z,100032
2018-05-25T19:53:56.708Z,100038
2018-05-25T19:56:24.766Z,100036
2018-05-25T19:58:52.807Z,100031
2018-05-25T20:01:20.912Z,100038
2018-05-25T20:03:48.984Z,100042
2018-05-25T20:06:17.074Z,100039
2018-05-25T20:08:45.909Z,100043
2018-05-25T20:11:14.064Z,100044
2018-05-25T20:13:42.163Z,100042
2018-05-25T20:16:10.253Z,100038
2018-05-25T20:18:38.274Z,100035
2018-05-25T20:21:06.325Z,100039
2018-05-25T20:23:34.368Z,100041
2018-05-25T20:26:03.187Z,100038
2018-05-25T20:28:31.324Z,100034
2018-05-25T20:30:59.454Z,100037
2018-05-25T20:33:27.539Z,100032
2018-05-25T20:35:55.632Z,100033
2018-05-25T20:38:23.686Z,100026
2018-05-25T20:40:52.522Z,100025
2018-05-25T20:43:20.548Z,100024
2018-05-25T20:45:48.615Z,100022
2018-05-25T20:48:16.662Z,100027
2018-05-25T20:50:44.744Z,100020
2018-05-25T20:53:13.562Z,100023
2018-05-25T20:55:41.621Z,100019
2018-05-25T20:58:10.433Z,100026
2018-05-25T21:00:38.524Z,100022
2018-05-25T21:03:06.572Z,100017
2018-05-25T21:05:34.630Z,100020
2018-05-25T21:08:02.689Z,100025
2018-05-25T21:10:30.743Z,100023
2018-05-25T21:12:59.556Z,100026
2018-05-25T21:15:27.627Z,100021
2018-05-25T21:17:56.457Z,100019
2018-05-25T21:20:24.540Z,100014
2018-05-25T21:22:52.582Z,100015
2018-05-25T21:25:20.712Z,100013
2018-05-25T21:27:48.753Z,100013
2018-05-25T21:30:16.804Z,100017
2018-05-25T21:32:44.856Z,100017
2018-05-25T21:35:12.900Z,100018
2018-05-25T21:37:41.033Z,100019
2018-05-25T21:40:09.103Z,100018
2018-05-25T21:42:37.962Z,100023
2018-05-25T21:45:05.975Z,100025
2018-05-25T21:47:34.809Z,100027
2018-05-25T21:50:02.855Z,100026
2018-05-25T21:52:30.907Z,100031
2018-05-25T21:54:59.064Z,100034
2018-05-25T21:57:27.150Z,100034
2018-05-25T21:59:55.242Z,100035
2018-05-25T22:02:23.290Z,100039
2018-05-25T22:04:52.157Z,100040
2018-05-25T22:07:20.206Z,100044
2018-05-25T22:09:48.255Z,100043
2018-05-25T22:12:17.083Z,100044
2018-05-25T22:14:45.182Z,100043
2018-05-25T22:17:13.268Z,100043
2018-05-25T22:19:41.356Z,100048
2018-05-25T22:22:09.407Z,100044
2018-05-25T22:24:37.515Z,100045
2018-05-25T22:27:05.573Z,100055
2018-05-25T22:29:34.383Z,100050
2018-05-25T22:32:03.316Z,100045
2018-05-25T22:34:31.358Z,100046
2018-05-25T22:36:59.485Z,100052
2018-05-25T22:39:27.526Z,100052
2018-05-25T22:41:55.658Z,100057
2018-05-25T22:44:41.531Z,100055
2018-05-25T22:47:28.252Z,100055
2018-05-25T22:50:14.787Z,100052
2018-05-25T22:52:47.608Z,100051
2018-05-25T22:55:15.659Z,100056
2018-05-25T22:57:43.775Z,100059
2018-05-25T23:00:11.823Z,100053
2018-05-25T23:02:40.642Z,100056
2018-05-25T23:05:08.688Z,100053
2018-05-25T23:07:36.818Z,100054
2018-05-25T23:10:04.863Z,100054
2018-05-25T23:12:32.920Z,100052
2018-05-25T23:15:00.981Z,100049
2018-05-25T23:17:29.068Z,100048
2018-05-25T23:19:57.155Z,100050
2018-05-25T23:22:25.202Z,100043
2018-05-25T23:24:54.031Z,100045
2018-05-25T23:27:22.083Z,100043
2018-05-25T23:29:50.928Z,100037
2018-05-25T23:32:18.981Z,100037
2018-05-25T23:34:47.791Z,100034
2018-05-25T23:37:16.717Z,100035
2018-05-25T23:39:44.766Z,100033
2018-05-25T23:42:13.607Z,100041
2018-05-25T23:44:41.651Z,100043
2018-05-25T23:47:10.488Z,100047
2018-05-25T23:49:38.571Z,100050
2018-05-25T23:52:06.660Z,100049
2018-05-25T23:54:34.707Z,100049
2018-05-25T23:57:03.532Z,100057
2018-05-25T23:59:31.588Z,100060
